createdAt,value
2017-04-17T00:00:26.286Z,0
2017-04-17T00:01:26.246Z,0
2017-04-17T00:02:26.771Z,0
2017-04-17T00:03:26.221Z,0
2017-04-17T00:04:25.898Z,0
2017-04-17T00:05:26.200Z,0
2017-04-17T00:06:27.231Z,0
2017-04-17T00:07:25.853Z,0
2017-04-17T00:08:26.151Z,0
2017-04-17T00:09:27.324Z,0
2017-04-17T00:10:25.495Z,0
2017-04-17T00:11:26.108Z,0
2017-04-17T00:12:27.132Z,0
2017-04-17T00:13:26.087Z,0
2017-04-17T00:14:26.075Z,0
2017-04-17T00:15:26.288Z,0
2017-04-17T00:16:26.040Z,0
2017-04-17T00:17:26.070Z,0
2017-04-17T00:18:26.829Z,0
2017-04-17T00:19:26.010Z,0
2017-04-17T00:20:26.312Z,0
2017-04-17T00:21:25.971Z,0
2017-04-17T00:22:26.850Z,0
2017-04-17T00:23:25.954Z,0
2017-04-17T00:24:25.933Z,0
2017-04-17T00:25:26.845Z,0
2017-04-17T00:26:25.279Z,0
2017-04-17T00:27:25.901Z,0
2017-04-17T00:28:27.057Z,0
2017-04-17T00:29:25.873Z,0
2017-04-17T00:30:25.852Z,0
2017-04-17T00:31:26.943Z,0
2017-04-17T00:32:25.196Z,0
2017-04-17T00:33:25.813Z,0
2017-04-17T00:34:26.600Z,0
2017-04-17T00:35:26.018Z,0
2017-04-17T00:36:26.543Z,0
2017-04-17T00:37:25.759Z,0
2017-04-17T00:38:25.831Z,0
2017-04-17T00:39:25.735Z,0
2017-04-17T00:40:25.397Z,0
2017-04-17T00:41:25.723Z,0
2017-04-17T00:42:25.693Z,0
2017-04-17T00:43:25.675Z,0
2017-04-17T00:44:25.348Z,0
2017-04-17T00:45:25.345Z,0
2017-04-17T00:46:25.630Z,0
2017-04-17T00:47:25.303Z,0
2017-04-17T00:48:25.606Z,0
2017-04-17T00:49:25.607Z,0
2017-04-17T00:50:25.256Z,0
2017-04-17T00:51:24.937Z,0
2017-04-17T00:52:25.704Z,0
2017-04-17T00:53:25.237Z,0
2017-04-17T00:54:25.523Z,0
2017-04-17T00:55:26.720Z,0
2017-04-17T00:56:25.177Z,0
2017-04-17T00:57:25.489Z,0
2017-04-17T00:58:26.684Z,0
2017-04-17T00:59:25.461Z,0
2017-04-17T01:00:26.219Z,0
2017-04-17T01:01:38.863Z,0
2017-04-17T01:02:25.412Z,0
2017-04-17T01:03:25.904Z,0
2017-04-17T01:04:25.386Z,0
2017-04-17T01:05:25.051Z,0
2017-04-17T01:06:25.590Z,0
2017-04-17T01:07:25.615Z,0
2017-04-17T01:08:25.327Z,0
2017-04-17T01:09:25.691Z,0
2017-04-17T01:10:24.985Z,0
2017-04-17T01:11:25.287Z,0
2017-04-17T01:12:25.626Z,0
2017-04-17T01:13:25.255Z,0
2017-04-17T01:14:25.245Z,0
2017-04-17T01:15:25.346Z,0
2017-04-17T01:16:25.218Z,0
2017-04-17T01:17:24.878Z,0
2017-04-17T01:18:25.183Z,0
2017-04-17T01:19:25.171Z,0
2017-04-17T01:20:25.157Z,0
2017-04-17T01:21:24.823Z,0
2017-04-17T01:22:24.494Z,0
2017-04-17T01:23:24.804Z,0
2017-04-17T01:24:24.794Z,0
2017-04-17T01:25:24.626Z,0
2017-04-17T01:26:24.754Z,0
2017-04-17T01:27:24.742Z,0
2017-04-17T01:28:24.732Z,0
2017-04-17T01:29:25.032Z,0
2017-04-17T01:30:25.012Z,0
2017-04-17T01:31:24.996Z,0
2017-04-17T01:32:24.354Z,0
2017-04-17T01:33:25.008Z,0
2017-04-17T01:34:25.096Z,0
2017-04-17T01:35:24.936Z,0
2017-04-17T01:36:24.920Z,0
2017-04-17T01:37:24.903Z,0
2017-04-17T01:38:24.906Z,0
2017-04-17T01:39:24.561Z,0
2017-04-17T01:40:24.866Z,0
2017-04-17T01:41:24.224Z,0
2017-04-17T01:42:24.834Z,0
2017-04-17T01:43:24.867Z,0
2017-04-17T01:44:24.818Z,0
2017-04-17T01:45:24.793Z,0
2017-04-17T01:46:24.784Z,0
2017-04-17T01:47:24.763Z,0
2017-04-17T01:48:24.752Z,0
2017-04-17T01:49:24.739Z,0
2017-04-17T01:50:24.720Z,0
2017-04-17T01:51:24.384Z,0
2017-04-17T01:52:24.689Z,0
2017-04-17T01:53:24.355Z,0
2017-04-17T01:54:24.661Z,0
2017-04-17T01:55:24.645Z,0
2017-04-17T01:56:23.997Z,0
2017-04-17T01:57:24.613Z,0
2017-04-17T01:58:24.606Z,0
2017-04-17T01:59:24.579Z,0
2017-04-17T02:00:24.563Z,0
2017-04-17T02:01:24.227Z,0
2017-04-17T02:02:24.570Z,0
2017-04-17T02:03:24.519Z,0
2017-04-17T02:04:24.503Z,0
2017-04-17T02:05:24.486Z,0
2017-04-17T02:06:24.471Z,0
2017-04-17T02:07:24.456Z,0
2017-04-17T02:08:24.464Z,0
2017-04-17T02:09:24.433Z,0
2017-04-17T02:10:24.687Z,0
2017-04-17T02:11:24.402Z,0
2017-04-17T02:12:24.388Z,0
2017-04-17T02:13:24.058Z,0
2017-04-17T02:14:24.352Z,0
2017-04-17T02:15:24.343Z,0
2017-04-17T02:16:24.322Z,0
2017-04-17T02:17:23.993Z,0
2017-04-17T02:18:23.986Z,0
2017-04-17T02:19:24.284Z,0
2017-04-17T02:20:24.267Z,0
2017-04-17T02:21:23.933Z,0
2017-04-17T02:22:24.231Z,0
2017-04-17T02:23:23.910Z,0
2017-04-17T02:24:24.207Z,0
2017-04-17T02:25:24.190Z,0
2017-04-17T02:26:24.181Z,0
2017-04-17T02:27:24.166Z,0
2017-04-17T02:28:24.153Z,0
2017-04-17T02:29:23.820Z,0
2017-04-17T02:30:23.803Z,0
2017-04-17T02:31:23.791Z,0
2017-04-17T02:32:24.085Z,0
2017-04-17T02:33:24.073Z,0
2017-04-17T02:34:24.055Z,0
2017-04-17T02:35:23.733Z,0
2017-04-17T02:36:24.186Z,0
2017-04-17T02:37:24.010Z,0
2017-04-17T02:38:24.002Z,0
2017-04-17T02:39:23.674Z,0
2017-04-17T02:40:23.968Z,0
2017-04-17T02:41:23.638Z,0
2017-04-17T02:42:23.630Z,0
2017-04-17T02:43:23.611Z,0
2017-04-17T02:44:23.597Z,0
2017-04-17T02:45:23.575Z,0
2017-04-17T02:46:23.570Z,0
2017-04-17T02:47:23.864Z,0
2017-04-17T02:48:23.851Z,0
2017-04-17T02:49:23.835Z,0
2017-04-17T02:50:23.514Z,0
2017-04-17T02:51:23.806Z,0
2017-04-17T02:52:23.795Z,0
2017-04-17T02:53:23.786Z,0
2017-04-17T02:54:24.081Z,0
2017-04-17T02:55:23.335Z,0
2017-04-17T02:56:23.102Z,0
2017-04-17T02:57:23.404Z,0
2017-04-17T02:58:23.388Z,0
2017-04-17T02:59:23.385Z,0
2017-04-17T03:00:23.672Z,0
2017-04-17T03:01:23.346Z,0
2017-04-17T03:02:23.648Z,0
2017-04-17T03:03:23.438Z,0
2017-04-17T03:04:23.618Z,0
2017-04-17T03:05:23.599Z,0
2017-04-17T03:06:23.268Z,0
2017-04-17T03:07:23.255Z,0
2017-04-17T03:08:23.554Z,0
2017-04-17T03:09:23.227Z,0
2017-04-17T03:10:23.537Z,0
2017-04-17T03:11:23.514Z,0
2017-04-17T03:12:23.184Z,0
2017-04-17T03:13:23.480Z,0
2017-04-17T03:14:23.468Z,0
2017-04-17T03:15:23.456Z,0
2017-04-17T03:16:23.122Z,0
2017-04-17T03:17:22.791Z,0
2017-04-17T03:18:22.779Z,0
2017-04-17T03:19:23.406Z,0
2017-04-17T03:20:23.378Z,0
2017-04-17T03:21:23.588Z,0
2017-04-17T03:22:23.040Z,0
2017-04-17T03:23:23.062Z,0
2017-04-17T03:24:23.006Z,0
2017-04-17T03:25:22.674Z,0
2017-04-17T03:26:23.285Z,0
2017-04-17T03:27:22.965Z,0
2017-04-17T03:28:22.944Z,0
2017-04-17T03:29:22.927Z,0
2017-04-17T03:30:23.393Z,0
2017-04-17T03:31:23.216Z,0
2017-04-17T03:32:22.889Z,0
2017-04-17T03:33:23.219Z,0
2017-04-17T03:34:23.181Z,0
2017-04-17T03:35:22.528Z,0
2017-04-17T03:36:22.827Z,0
2017-04-17T03:37:23.125Z,0
2017-04-17T03:38:23.115Z,0
2017-04-17T03:39:23.119Z,0
2017-04-17T03:40:23.078Z,0
2017-04-17T03:41:23.063Z,0
2017-04-17T03:42:22.744Z,0
2017-04-17T03:43:22.727Z,0
2017-04-17T03:44:22.711Z,0
2017-04-17T03:45:23.007Z,0
2017-04-17T03:46:22.678Z,0
2017-04-17T03:47:23.014Z,0
2017-04-17T03:48:23.111Z,0
2017-04-17T03:49:22.631Z,0
2017-04-17T03:50:22.929Z,0
2017-04-17T03:51:22.924Z,0
2017-04-17T03:52:22.587Z,0
2017-04-17T03:53:22.893Z,0
2017-04-17T03:54:22.873Z,0
2017-04-17T03:55:22.856Z,0
2017-04-17T03:56:22.599Z,0
2017-04-17T03:57:22.830Z,0
2017-04-17T03:58:22.819Z,0
2017-04-17T03:59:22.489Z,0
2017-04-17T04:00:22.778Z,0
2017-04-17T04:01:22.763Z,0
2017-04-17T04:02:22.776Z,0
2017-04-17T04:03:22.746Z,0
2017-04-17T04:04:22.409Z,0
2017-04-17T04:05:22.604Z,0
2017-04-17T04:06:22.380Z,0
2017-04-17T04:07:22.675Z,0
2017-04-17T04:08:22.347Z,0
2017-04-17T04:09:22.649Z,0
2017-04-17T04:10:22.632Z,0
2017-04-17T04:11:22.618Z,0
2017-04-17T04:12:22.285Z,0
2017-04-17T04:13:21.960Z,0
2017-04-17T04:14:22.567Z,0
2017-04-17T04:15:22.239Z,0
2017-04-17T04:16:22.225Z,0
2017-04-17T04:17:21.897Z,0
2017-04-17T04:18:22.516Z,0
2017-04-17T04:19:22.510Z,0
2017-04-17T04:20:22.482Z,0
2017-04-17T04:21:22.148Z,0
2017-04-17T04:22:22.163Z,0
2017-04-17T04:23:22.437Z,0
2017-04-17T04:24:22.425Z,0
2017-04-17T04:25:22.403Z,0
2017-04-17T04:26:22.079Z,0
2017-04-17T04:27:22.383Z,0
2017-04-17T04:28:21.727Z,0
2017-04-17T04:29:22.348Z,0
2017-04-17T04:30:22.015Z,0
2017-04-17T04:31:22.360Z,0
2017-04-17T04:32:22.319Z,0
2017-04-17T04:33:22.291Z,0
2017-04-17T04:34:22.291Z,0
2017-04-17T04:35:21.942Z,0
2017-04-17T04:36:21.619Z,0
2017-04-17T04:37:21.912Z,5
2017-04-17T04:38:21.894Z,5
2017-04-17T04:39:22.209Z,5
2017-04-17T04:40:21.550Z,5
2017-04-17T04:41:22.425Z,5
2017-04-17T04:42:22.155Z,5
2017-04-17T04:43:22.141Z,5
2017-04-17T04:44:21.815Z,5
2017-04-17T04:45:21.790Z,5
2017-04-17T04:46:21.779Z,5
2017-04-17T04:47:22.080Z,5
2017-04-17T04:48:22.064Z,5
2017-04-17T04:49:21.873Z,5
2017-04-17T04:50:21.722Z,5
2017-04-17T04:51:22.014Z,10
2017-04-17T04:52:22.005Z,10
2017-04-17T04:53:21.690Z,10
2017-04-17T04:54:21.690Z,5
2017-04-17T04:55:21.647Z,5
2017-04-17T04:56:21.315Z,10
2017-04-17T04:57:21.928Z,10
2017-04-17T04:58:21.913Z,10
2017-04-17T04:59:21.900Z,15
2017-04-17T05:00:21.570Z,15
2017-04-17T05:01:21.873Z,15
2017-04-17T05:02:21.534Z,20
2017-04-17T05:03:21.529Z,25
2017-04-17T05:04:21.513Z,25
2017-04-17T05:05:21.810Z,20
2017-04-17T05:06:21.955Z,15
2017-04-17T05:07:21.776Z,15
2017-04-17T05:08:21.800Z,20
2017-04-17T05:09:21.440Z,20
2017-04-17T05:10:21.462Z,20
2017-04-17T05:11:21.728Z,10
2017-04-17T05:12:21.718Z,10
2017-04-17T05:13:21.699Z,5
2017-04-17T05:14:21.369Z,5
2017-04-17T05:15:21.675Z,5
2017-04-17T05:16:21.020Z,10
2017-04-17T05:17:21.002Z,15
2017-04-17T05:18:21.302Z,15
2017-04-17T05:19:21.603Z,15
2017-04-17T05:20:21.589Z,15
2017-04-17T05:21:21.568Z,10
2017-04-17T05:22:21.557Z,10
2017-04-17T05:23:21.228Z,10
2017-04-17T05:24:21.528Z,10
2017-04-17T05:25:21.520Z,10
2017-04-17T05:26:21.184Z,10
2017-04-17T05:27:21.495Z,10
2017-04-17T05:28:21.468Z,10
2017-04-17T05:29:21.141Z,10
2017-04-17T05:30:20.808Z,15
2017-04-17T05:31:20.791Z,15
2017-04-17T05:32:21.100Z,15
2017-04-17T05:33:21.420Z,25
2017-04-17T05:34:21.381Z,30
2017-04-17T05:35:21.365Z,30
2017-04-17T05:36:20.717Z,30
2017-04-17T05:37:21.334Z,30
2017-04-17T05:38:21.010Z,30
2017-04-17T05:39:21.309Z,25
2017-04-17T05:40:20.982Z,30
2017-04-17T05:41:21.033Z,35
2017-04-17T05:42:20.939Z,35
2017-04-17T05:43:21.248Z,45
2017-04-17T05:44:21.226Z,60
2017-04-17T05:45:21.209Z,85
2017-04-17T05:46:21.200Z,70
2017-04-17T05:47:21.188Z,70
2017-04-17T05:48:21.184Z,80
2017-04-17T05:49:21.265Z,95
2017-04-17T05:50:20.822Z,100
2017-04-17T05:51:21.133Z,95
2017-04-17T05:52:21.113Z,100
2017-04-17T05:53:21.097Z,100
2017-04-17T05:54:21.301Z,100
2017-04-17T05:55:21.068Z,95
2017-04-17T05:56:20.421Z,95
2017-04-17T05:57:20.717Z,90
2017-04-17T05:58:21.169Z,80
2017-04-17T05:59:20.692Z,75
2017-04-17T06:00:20.993Z,70
2017-04-17T06:01:20.975Z,70
2017-04-17T06:02:20.962Z,65
2017-04-17T06:03:20.947Z,60
2017-04-17T06:04:20.619Z,50
2017-04-17T06:05:20.605Z,40
2017-04-17T06:06:20.274Z,40
2017-04-17T06:07:20.539Z,45
2017-04-17T06:08:20.874Z,45
2017-04-17T06:09:20.863Z,50
2017-04-17T06:10:20.527Z,40
2017-04-17T06:11:20.826Z,50
2017-04-17T06:12:20.811Z,50
2017-04-17T06:13:20.804Z,35
2017-04-17T06:14:20.782Z,35
2017-04-17T06:15:20.563Z,35
2017-04-17T06:16:20.766Z,40
2017-04-17T06:17:20.419Z,40
2017-04-17T06:18:20.721Z,40
2017-04-17T06:19:20.393Z,35
2017-04-17T06:20:20.693Z,30
2017-04-17T06:21:20.681Z,35
2017-04-17T06:22:20.662Z,30
2017-04-17T06:23:20.655Z,35
2017-04-17T06:24:20.636Z,35
2017-04-17T06:25:20.617Z,30
2017-04-17T06:26:20.599Z,25
2017-04-17T06:27:20.591Z,25
2017-04-17T06:28:20.574Z,25
2017-04-17T06:29:19.931Z,30
2017-04-17T06:30:19.913Z,35
2017-04-17T06:31:20.531Z,35
2017-04-17T06:32:20.202Z,35
2017-04-17T06:33:20.554Z,35
2017-04-17T06:34:20.185Z,40
2017-04-17T06:35:20.477Z,50
2017-04-17T06:36:20.143Z,65
2017-04-17T06:37:20.448Z,75
2017-04-17T06:38:20.433Z,90
2017-04-17T06:39:20.412Z,95
2017-04-17T06:40:19.769Z,95
2017-04-17T06:41:20.477Z,95
2017-04-17T06:42:20.377Z,125
2017-04-17T06:43:19.097Z,120
2017-04-17T06:44:20.342Z,115
2017-04-17T06:45:20.325Z,95
2017-04-17T06:46:20.319Z,95
2017-04-17T06:47:20.292Z,95
2017-04-17T06:48:19.332Z,85
2017-04-17T06:49:19.648Z,75
2017-04-17T06:50:19.557Z,75
2017-04-17T06:51:20.239Z,70
2017-04-17T06:52:20.221Z,75
2017-04-17T06:53:19.580Z,70
2017-04-17T06:54:19.882Z,65
2017-04-17T06:55:20.174Z,65
2017-04-17T06:56:19.530Z,65
2017-04-17T06:57:19.833Z,65
2017-04-17T06:58:19.829Z,65
2017-04-17T06:59:20.146Z,70
2017-04-17T07:00:20.106Z,60
2017-04-17T07:01:20.088Z,55
2017-04-17T07:02:19.762Z,50
2017-04-17T07:03:20.056Z,55
2017-04-17T07:04:19.729Z,50
2017-04-17T07:05:20.031Z,50
2017-04-17T07:06:19.703Z,60
2017-04-17T07:07:19.741Z,75
2017-04-17T07:08:19.774Z,75
2017-04-17T07:09:19.974Z,75
2017-04-17T07:10:19.956Z,80
2017-04-17T07:11:19.622Z,85
2017-04-17T07:12:19.606Z,90
2017-04-17T07:13:19.907Z,100
2017-04-17T07:14:19.892Z,110
2017-04-17T07:15:19.876Z,120
2017-04-17T07:16:20.116Z,135
2017-04-17T07:17:19.845Z,135
2017-04-17T07:18:19.520Z,125
2017-04-17T07:19:19.817Z,120
2017-04-17T07:20:19.811Z,120
2017-04-17T07:21:19.787Z,110
2017-04-17T07:22:19.779Z,110
2017-04-17T07:23:19.755Z,110
2017-04-17T07:24:19.792Z,110
2017-04-17T07:25:19.412Z,100
2017-04-17T07:26:19.397Z,90
2017-04-17T07:27:19.392Z,80
2017-04-17T07:28:19.052Z,80
2017-04-17T07:29:19.356Z,80
2017-04-17T07:30:19.022Z,80
2017-04-17T07:31:19.321Z,85
2017-04-17T07:32:19.304Z,95
2017-04-17T07:33:19.293Z,110
2017-04-17T07:34:19.591Z,135
2017-04-17T07:35:19.571Z,155
2017-04-17T07:36:19.563Z,160
2017-04-17T07:37:19.235Z,155
2017-04-17T07:38:19.533Z,145
2017-04-17T07:39:19.517Z,140
2017-04-17T07:40:19.197Z,125
2017-04-17T07:41:19.347Z,115
2017-04-17T07:42:19.472Z,100
2017-04-17T07:43:18.831Z,95
2017-04-17T07:44:19.127Z,85
2017-04-17T07:45:19.429Z,80
2017-04-17T07:46:18.785Z,80
2017-04-17T07:47:19.401Z,80
2017-04-17T07:48:18.452Z,85
2017-04-17T07:49:19.058Z,90
2017-04-17T07:50:19.050Z,95
2017-04-17T07:51:19.025Z,110
2017-04-17T07:52:18.752Z,130
2017-04-17T07:53:18.996Z,140
2017-04-17T07:54:19.298Z,145
2017-04-17T07:55:19.280Z,145
2017-04-17T07:56:18.640Z,155
2017-04-17T07:57:18.938Z,165
2017-04-17T07:58:19.246Z,180
2017-04-17T07:59:19.418Z,185
2017-04-17T08:00:18.274Z,180
2017-04-17T08:01:18.567Z,180
2017-04-17T08:02:18.870Z,185
2017-04-17T08:03:18.559Z,190
2017-04-17T08:04:18.528Z,190
2017-04-17T08:05:19.516Z,185
2017-04-17T08:06:18.491Z,190
2017-04-17T08:07:19.108Z,190
2017-04-17T08:08:19.542Z,195
2017-04-17T08:09:18.764Z,195
2017-04-17T08:10:19.064Z,190
2017-04-17T08:11:18.734Z,185
2017-04-17T08:12:18.402Z,185
2017-04-17T08:13:18.711Z,175
2017-04-17T08:14:19.009Z,165
2017-04-17T08:15:18.683Z,155
2017-04-17T08:16:18.979Z,150
2017-04-17T08:17:18.999Z,150
2017-04-17T08:18:18.953Z,150
2017-04-17T08:19:18.945Z,150
2017-04-17T08:20:18.927Z,155
2017-04-17T08:21:18.910Z,160
2017-04-17T08:22:18.897Z,160
2017-04-17T08:23:18.572Z,155
2017-04-17T08:24:18.569Z,155
2017-04-17T08:25:18.712Z,155
2017-04-17T08:26:18.875Z,155
2017-04-17T08:27:18.503Z,160
2017-04-17T08:28:18.816Z,160
2017-04-17T08:29:18.793Z,165
2017-04-17T08:30:18.469Z,170
2017-04-17T08:31:18.453Z,185
2017-04-17T08:32:18.123Z,195
2017-04-17T08:33:18.425Z,205
2017-04-17T08:34:18.788Z,210
2017-04-17T08:35:18.393Z,215
2017-04-17T08:36:18.700Z,215
2017-04-17T08:37:18.373Z,220
2017-04-17T08:38:18.357Z,240
2017-04-17T08:39:18.653Z,255
2017-04-17T08:40:18.650Z,260
2017-04-17T08:41:18.629Z,265
2017-04-17T08:42:18.298Z,275
2017-04-17T08:43:18.544Z,285
2017-04-17T08:44:18.282Z,295
2017-04-17T08:45:18.572Z,305
2017-04-17T08:46:18.555Z,300
2017-04-17T08:47:18.543Z,295
2017-04-17T08:48:17.910Z,300
2017-04-17T08:49:17.891Z,295
2017-04-17T08:50:18.502Z,285
2017-04-17T08:51:18.178Z,290
2017-04-17T08:52:18.162Z,290
2017-04-17T08:53:17.839Z,270
2017-04-17T08:54:18.459Z,265
2017-04-17T08:55:18.436Z,265
2017-04-17T08:56:18.426Z,295
2017-04-17T08:57:18.408Z,315
2017-04-17T08:58:18.398Z,345
2017-04-17T08:59:18.391Z,370
2017-04-17T09:00:18.633Z,390
2017-04-17T09:01:18.041Z,395
2017-04-17T09:02:18.028Z,390
2017-04-17T09:03:18.362Z,380
2017-04-17T09:04:18.324Z,375
2017-04-17T09:05:18.310Z,375
2017-04-17T09:06:17.978Z,370
2017-04-17T09:07:18.286Z,370
2017-04-17T09:08:18.269Z,380
2017-04-17T09:09:18.255Z,395
2017-04-17T09:10:17.929Z,410
2017-04-17T09:11:17.600Z,420
2017-04-17T09:12:17.899Z,425
2017-04-17T09:13:18.213Z,435
2017-04-17T09:14:17.883Z,445
2017-04-17T09:15:17.862Z,460
2017-04-17T09:16:18.068Z,475
2017-04-17T09:17:17.839Z,480
2017-04-17T09:18:17.850Z,480
2017-04-17T09:19:17.825Z,475
2017-04-17T09:20:17.799Z,465
2017-04-17T09:21:17.790Z,455
2017-04-17T09:22:17.463Z,445
2017-04-17T09:23:17.774Z,445
2017-04-17T09:24:18.072Z,455
2017-04-17T09:25:18.322Z,465
2017-04-17T09:26:17.735Z,465
2017-04-17T09:27:18.065Z,455
2017-04-17T09:28:18.032Z,450
2017-04-17T09:29:18.011Z,450
2017-04-17T09:30:17.683Z,455
2017-04-17T09:31:17.672Z,450
2017-04-17T09:32:17.033Z,445
2017-04-17T09:33:17.969Z,430
2017-04-17T09:34:17.656Z,425
2017-04-17T09:35:17.627Z,425
2017-04-17T09:36:17.929Z,430
2017-04-17T09:37:17.920Z,440
2017-04-17T09:38:17.595Z,440
2017-04-17T09:39:17.581Z,435
2017-04-17T09:40:17.254Z,435
2017-04-17T09:41:17.872Z,430
2017-04-17T09:42:17.362Z,420
2017-04-17T09:43:17.902Z,435
2017-04-17T09:44:17.876Z,435
2017-04-17T09:45:17.845Z,440
2017-04-17T09:46:17.504Z,450
2017-04-17T09:47:17.489Z,455
2017-04-17T09:48:17.485Z,465
2017-04-17T09:49:16.847Z,470
2017-04-17T09:50:17.458Z,475
2017-04-17T09:51:17.447Z,475
2017-04-17T09:52:17.439Z,475
2017-04-17T09:53:17.748Z,460
2017-04-17T09:54:17.418Z,450
2017-04-17T09:55:17.719Z,440
2017-04-17T09:56:17.394Z,435
2017-04-17T09:57:17.708Z,430
2017-04-17T09:58:17.423Z,420
2017-04-17T09:59:17.915Z,405
2017-04-17T10:00:17.350Z,380
2017-04-17T10:01:17.345Z,355
2017-04-17T10:02:17.013Z,345
2017-04-17T10:03:17.638Z,340
2017-04-17T10:04:17.627Z,345
2017-04-17T10:05:17.610Z,335
2017-04-17T10:06:17.195Z,330
2017-04-17T10:07:17.592Z,320
2017-04-17T10:08:17.581Z,335
2017-04-17T10:09:17.263Z,360
2017-04-17T10:10:17.561Z,375
2017-04-17T10:11:17.234Z,385
2017-04-17T10:12:17.227Z,385
2017-04-17T10:13:17.528Z,395
2017-04-17T10:14:16.885Z,395
2017-04-17T10:15:17.508Z,400
2017-04-17T10:16:17.498Z,400
2017-04-17T10:17:17.632Z,395
2017-04-17T10:18:17.473Z,390
2017-04-17T10:19:17.465Z,380
2017-04-17T10:20:17.447Z,375
2017-04-17T10:21:17.439Z,370
2017-04-17T10:22:17.436Z,365
2017-04-17T10:23:17.421Z,360
2017-04-17T10:24:17.587Z,370
2017-04-17T10:25:17.083Z,375
2017-04-17T10:26:17.074Z,385
2017-04-17T10:27:17.383Z,395
2017-04-17T10:28:17.060Z,410
2017-04-17T10:29:18.006Z,420
2017-04-17T10:30:17.353Z,435
2017-04-17T10:31:17.023Z,425
2017-04-17T10:32:17.009Z,405
2017-04-17T10:33:17.360Z,415
2017-04-17T10:34:17.302Z,430
2017-04-17T10:35:17.292Z,425
2017-04-17T10:36:16.649Z,415
2017-04-17T10:37:16.953Z,415
2017-04-17T10:38:17.260Z,410
2017-04-17T10:39:17.249Z,400
2017-04-17T10:40:17.310Z,395
2017-04-17T10:41:17.223Z,400
2017-04-17T10:42:17.210Z,405
2017-04-17T10:43:17.199Z,405
2017-04-17T10:44:16.887Z,410
2017-04-17T10:45:17.182Z,410
2017-04-17T10:46:16.856Z,405
2017-04-17T10:47:17.174Z,420
2017-04-17T10:48:17.152Z,435
2017-04-17T10:49:16.831Z,440
2017-04-17T10:50:17.129Z,445
2017-04-17T10:51:16.806Z,450
2017-04-17T10:52:16.791Z,430
2017-04-17T10:53:17.120Z,405
2017-04-17T10:54:16.775Z,380
2017-04-17T10:55:17.073Z,355
2017-04-17T10:56:16.747Z,340
2017-04-17T10:57:17.060Z,350
2017-04-17T10:58:16.730Z,365
2017-04-17T10:59:17.032Z,385
2017-04-17T11:00:16.703Z,410
2017-04-17T11:01:17.009Z,410
2017-04-17T11:02:16.687Z,410
2017-04-17T11:03:16.681Z,410
2017-04-17T11:04:16.981Z,410
2017-04-17T11:05:16.970Z,415
2017-04-17T11:06:16.958Z,410
2017-04-17T11:07:16.633Z,415
2017-04-17T11:08:16.939Z,415
2017-04-17T11:09:16.922Z,420
2017-04-17T11:10:16.914Z,425
2017-04-17T11:11:16.940Z,425
2017-04-17T11:12:16.894Z,420
2017-04-17T11:13:16.886Z,410
2017-04-17T11:14:17.069Z,405
2017-04-17T11:15:16.864Z,400
2017-04-17T11:16:16.536Z,395
2017-04-17T11:17:16.845Z,390
2017-04-17T11:18:16.833Z,385
2017-04-17T11:19:16.818Z,380
2017-04-17T11:20:16.496Z,375
2017-04-17T11:21:16.485Z,380
2017-04-17T11:22:15.526Z,385
2017-04-17T11:23:16.506Z,390
2017-04-17T11:24:16.136Z,400
2017-04-17T11:25:16.759Z,405
2017-04-17T11:26:16.491Z,405
2017-04-17T11:27:16.419Z,410
2017-04-17T11:28:16.724Z,425
2017-04-17T11:29:16.711Z,425
2017-04-17T11:30:16.078Z,430
2017-04-17T11:31:16.514Z,435
2017-04-17T11:32:16.674Z,440
2017-04-17T11:33:16.043Z,440
2017-04-17T11:34:16.662Z,445
2017-04-17T11:35:16.328Z,445
2017-04-17T11:36:16.326Z,445
2017-04-17T11:37:16.622Z,445
2017-04-17T11:38:16.302Z,440
2017-04-17T11:39:16.291Z,430
2017-04-17T11:40:16.731Z,415
2017-04-17T11:41:16.265Z,415
2017-04-17T11:42:16.563Z,410
2017-04-17T11:43:16.242Z,405
2017-04-17T11:44:16.547Z,405
2017-04-17T11:45:16.533Z,405
2017-04-17T11:46:15.899Z,405
2017-04-17T11:47:16.203Z,415
2017-04-17T11:48:16.506Z,415
2017-04-17T11:49:16.185Z,435
2017-04-17T11:50:16.484Z,445
2017-04-17T11:51:15.845Z,445
2017-04-17T11:52:16.145Z,450
2017-04-17T11:53:16.139Z,445
2017-04-17T11:54:16.440Z,440
2017-04-17T11:55:15.804Z,430
2017-04-17T11:56:16.443Z,425
2017-04-17T11:57:16.410Z,425
2017-04-17T11:58:16.399Z,415
2017-04-17T11:59:16.396Z,410
2017-04-17T12:00:16.064Z,420
2017-04-17T12:01:16.052Z,445
2017-04-17T12:02:16.356Z,455
2017-04-17T12:03:16.032Z,460
2017-04-17T12:04:16.354Z,460
2017-04-17T12:05:16.380Z,455
2017-04-17T12:06:15.689Z,450
2017-04-17T12:07:16.306Z,445
2017-04-17T12:08:16.293Z,445
2017-04-17T12:09:16.289Z,450
2017-04-17T12:10:16.274Z,450
2017-04-17T12:11:16.263Z,455
2017-04-17T12:12:15.625Z,455
2017-04-17T12:13:16.238Z,460
2017-04-17T12:14:15.922Z,460
2017-04-17T12:15:16.230Z,460
2017-04-17T12:16:16.210Z,460
2017-04-17T12:17:16.202Z,470
2017-04-17T12:18:15.568Z,465
2017-04-17T12:19:15.557Z,470
2017-04-17T12:20:15.857Z,480
2017-04-17T12:21:16.154Z,485
2017-04-17T12:22:15.834Z,495
2017-04-17T12:23:15.820Z,500
2017-04-17T12:24:15.500Z,495
2017-04-17T12:25:16.127Z,490
2017-04-17T12:26:16.100Z,480
2017-04-17T12:27:16.095Z,485
2017-04-17T12:28:15.775Z,490
2017-04-17T12:29:16.209Z,500
2017-04-17T12:30:16.061Z,510
2017-04-17T12:31:16.068Z,510
2017-04-17T12:32:16.046Z,510
2017-04-17T12:33:16.031Z,510
2017-04-17T12:34:15.390Z,520
2017-04-17T12:35:16.011Z,510
2017-04-17T12:36:15.385Z,510
2017-04-17T12:37:15.993Z,505
2017-04-17T12:38:16.710Z,505
2017-04-17T12:39:15.984Z,505
2017-04-17T12:40:15.646Z,515
2017-04-17T12:41:15.957Z,520
2017-04-17T12:42:15.325Z,520
2017-04-17T12:43:15.621Z,520
2017-04-17T12:44:15.612Z,520
2017-04-17T12:45:15.917Z,515
2017-04-17T12:46:15.930Z,520
2017-04-17T12:47:15.896Z,520
2017-04-17T12:48:15.260Z,520
2017-04-17T12:49:15.882Z,520
2017-04-17T12:50:15.871Z,520
2017-04-17T12:51:15.861Z,510
2017-04-17T12:52:15.538Z,505
2017-04-17T12:53:15.845Z,500
2017-04-17T12:54:15.615Z,500
2017-04-17T12:55:15.509Z,495
2017-04-17T12:56:15.501Z,505
2017-04-17T12:57:15.805Z,500
2017-04-17T12:58:15.800Z,490
2017-04-17T12:59:15.789Z,480
2017-04-17T13:00:15.781Z,450
2017-04-17T13:01:15.774Z,410
2017-04-17T13:02:15.763Z,385
2017-04-17T13:03:15.755Z,370
2017-04-17T13:04:15.124Z,340
2017-04-17T13:05:15.425Z,335
2017-04-17T13:06:15.726Z,345
2017-04-17T13:07:15.718Z,405
2017-04-17T13:08:15.710Z,455
2017-04-17T13:09:15.705Z,460
2017-04-17T13:10:15.376Z,450
2017-04-17T13:11:15.598Z,435
2017-04-17T13:12:15.042Z,400
2017-04-17T13:13:15.691Z,425
2017-04-17T13:14:15.343Z,450
2017-04-17T13:15:15.646Z,435
2017-04-17T13:16:15.638Z,415
2017-04-17T13:17:15.623Z,360
2017-04-17T13:18:15.622Z,325
2017-04-17T13:19:15.613Z,310
2017-04-17T13:20:15.889Z,290
2017-04-17T13:21:14.967Z,290
2017-04-17T13:22:15.265Z,305
2017-04-17T13:23:15.573Z,325
2017-04-17T13:24:15.560Z,360
2017-04-17T13:25:15.549Z,355
2017-04-17T13:26:15.538Z,375
2017-04-17T13:27:15.534Z,395
2017-04-17T13:28:15.556Z,400
2017-04-17T13:29:15.509Z,410
2017-04-17T13:30:15.501Z,420
2017-04-17T13:31:15.487Z,415
2017-04-17T13:32:15.486Z,395
2017-04-17T13:33:15.167Z,390
2017-04-17T13:34:14.835Z,380
2017-04-17T13:35:15.452Z,365
2017-04-17T13:36:15.205Z,385
2017-04-17T13:37:15.436Z,380
2017-04-17T13:38:15.108Z,360
2017-04-17T13:39:15.417Z,345
2017-04-17T13:40:15.088Z,320
2017-04-17T13:41:15.093Z,290
2017-04-17T13:42:15.380Z,255
2017-04-17T13:43:15.060Z,225
2017-04-17T13:44:15.051Z,205
2017-04-17T13:45:15.173Z,190
2017-04-17T13:46:15.339Z,180
2017-04-17T13:47:15.332Z,180
2017-04-17T13:48:15.011Z,185
2017-04-17T13:49:15.316Z,205
2017-04-17T13:50:15.302Z,220
2017-04-17T13:51:14.974Z,240
2017-04-17T13:52:15.276Z,275
2017-04-17T13:53:15.269Z,300
2017-04-17T13:54:15.262Z,340
2017-04-17T13:55:14.934Z,390
2017-04-17T13:56:15.238Z,440
2017-04-17T13:57:15.230Z,450
2017-04-17T13:58:14.591Z,430
2017-04-17T13:59:15.207Z,420
2017-04-17T14:00:15.194Z,410
2017-04-17T14:01:15.187Z,415
2017-04-17T14:02:15.250Z,430
2017-04-17T14:03:15.173Z,445
2017-04-17T14:04:15.159Z,475
2017-04-17T14:05:15.140Z,495
2017-04-17T14:06:15.133Z,495
2017-04-17T14:07:15.125Z,450
2017-04-17T14:08:15.106Z,415
2017-04-17T14:09:15.097Z,350
2017-04-17T14:10:15.086Z,300
2017-04-17T14:11:14.765Z,265